Time;durP1;ratioP1;P1;durP2;ratioP2;P2;SDS_P1;SDS_P2;PMS_P1;PMS_P2;Temp;Humidity;BMP_temperature;BMP_pressure;BME280_temperature;BME280_humidity;BME280_pressure;Samples;Min_cycle;Max_cycle;Signal;HPM_P1;HPM_P2
2023/12/29 00:00:29;;;;;;;84.80;37.10;;;;;;;-141.97;nan;46339.16;4955288;28;20168;-85
2023/12/29 00:02:55;;;;;;;88.93;37.47;;;;;;;-141.97;nan;46371.81;4973377;28;20160;-84
2023/12/29 00:05:20;;;;;;;79.07;35.73;;;;;;;-141.97;nan;46291.13;4955487;28;20164;-84
2023/12/29 00:07:46;;;;;;;82.90;36.77;;;;;;;-141.97;nan;45981.78;4956344;28;20168;-84
2023/12/29 00:10:11;;;;;;;85.00;37.13;;;;;;;-141.97;nan;45949.13;4955781;28;20226;-84
2023/12/29 00:12:36;;;;;;;85.00;37.10;;;;;;;-141.97;nan;45916.47;4955832;28;20178;-83
2023/12/29 00:15:02;;;;;;;82.23;36.23;;;;;;;-141.97;nan;46123.97;4972280;28;20687;-85
2023/12/29 00:17:28;;;;;;;86.43;38.47;;;;;;;-141.97;nan;46367.97;4955077;28;20270;-85
2023/12/29 00:19:53;;;;;;;90.93;37.70;;;;;;;-141.97;nan;46006.78;4972359;28;20172;-85
2023/12/29 00:22:19;;;;;;;102.50;42.03;;;;;;;-141.97;nan;46552.44;4954753;28;20262;-85
2023/12/29 00:24:44;;;;;;;107.67;44.63;;;;;;;-141.97;nan;46450.59;4954471;28;20176;-85
2023/12/29 00:27:10;;;;;;;104.70;44.90;;;;;;;-141.97;nan;46020.22;4972254;28;20175;-85
2023/12/29 00:29:35;;;;;;;103.13;44.87;;;;;;;-141.97;nan;46004.84;4972353;28;20173;-86
2023/12/29 00:32:02;;;;;;;90.87;41.13;;;;;;;-141.97;nan;46002.94;4960954;28;20180;-84
2023/12/29 00:34:27;;;;;;;84.80;40.33;;;;;;;-141.97;nan;46127.81;4976083;28;20200;-79
2023/12/29 00:36:53;;;;;;;92.47;40.33;;;;;;;-141.97;nan;46064.41;4984641;28;20490;-84
2023/12/29 00:39:18;;;;;;;94.80;40.30;;;;;;;-141.97;nan;45999.09;4971824;28;20594;-84
2023/12/29 00:41:43;;;;;;;102.27;41.03;;;;;;;-141.97;nan;46108.59;4954349;28;20183;-83
2023/12/29 00:44:09;;;;;;;94.23;41.27;;;;;;;-141.97;nan;46173.91;4954088;28;20775;-84
2023/12/29 00:46:34;;;;;;;98.63;41.23;;;;;;;-141.97;nan;46052.88;4954405;28;20168;-84
2023/12/29 00:49:00;;;;;;;84.67;37.20;;;;;;;-141.97;nan;46070.16;4954409;28;20541;-82
2023/12/29 00:51:25;;;;;;;80.97;36.37;;;;;;;-141.97;nan;46327.63;4954341;28;20255;-83
2023/12/29 00:53:50;;;;;;;76.70;34.50;;;;;;;-141.97;nan;46012.53;4971520;28;20222;-83
2023/12/29 00:56:16;;;;;;;70.07;32.73;;;;;;;-141.97;nan;45949.13;4971758;28;20195;-83
2023/12/29 00:58:41;;;;;;;69.43;31.60;;;;;;;-141.97;nan;46414.09;4954828;28;20530;-84
2023/12/29 01:01:08;;;;;;;66.60;31.63;;;;;;;-141.97;nan;46127.81;4971583;28;20172;-85
2023/12/29 01:03:34;;;;;;;65.93;32.53;;;;;;;-141.97;nan;46323.78;4971728;28;20160;-83
2023/12/29 01:06:00;;;;;;;71.37;33.07;;;;;;;-141.97;nan;46125.88;4971882;28;20745;-83
2023/12/29 01:08:25;;;;;;;75.07;33.83;;;;;;;-141.97;nan;45964.50;4971492;28;20478;-83
2023/12/29 01:10:50;;;;;;;72.47;32.40;;;;;;;-141.97;nan;46506.31;4971360;28;20306;-83
2023/12/29 01:13:16;;;;;;;67.70;30.90;;;;;;;-141.97;nan;46323.78;4971378;28;20726;-83
2023/12/29 01:15:45;;;;;;;57.90;28.73;;;;;;;-141.97;nan;46131.66;4953995;28;20218;-83
2023/12/29 01:18:11;;;;;;;56.07;27.70;;;;;;;-141.97;nan;46166.22;4971230;28;20168;-83
2023/12/29 01:20:36;;;;;;;59.23;28.83;;;;;;;-141.97;nan;46350.69;4971696;28;20416;-83
2023/12/29 01:23:01;;;;;;;62.13;29.07;;;;;;;-141.97;nan;45964.50;4958154;28;20179;-83
2023/12/29 01:25:27;;;;;;;61.97;29.97;;;;;;;-141.97;nan;46354.53;4975358;28;20168;-83
2023/12/29 01:27:52;;;;;;;60.73;28.93;;;;;;;-141.97;nan;46350.69;4957810;28;20596;-83
2023/12/29 01:30:17;;;;;;;69.93;31.93;;;;;;;-141.97;nan;46419.84;4975414;28;20667;-83
2023/12/29 01:32:43;;;;;;;66.57;31.87;;;;;;;-141.97;nan;46173.91;4975557;28;20247;-82
2023/12/29 01:35:08;;;;;;;58.60;28.13;;;;;;;-141.97;nan;46093.22;4975033;28;20203;-85
2023/12/29 01:37:34;;;;;;;81.57;34.93;;;;;;;-141.97;nan;46129.72;4975069;28;20199;-84
2023/12/29 01:39:59;;;;;;;74.53;33.70;;;;;;;-141.97;nan;46112.44;4975011;28;20178;-84
2023/12/29 01:42:25;;;;;;;70.37;33.23;;;;;;;-141.97;nan;45958.75;4974909;28;20164;-83
2023/12/29 01:44:54;;;;;;;81.17;37.23;;;;;;;-141.97;nan;46458.28;4990792;28;20183;-83
2023/12/29 01:47:20;;;;;;;81.20;36.03;;;;;;;-141.97;nan;45993.31;4998579;28;20152;-82
2023/12/29 01:49:47;;;;;;;68.90;33.07;;;;;;;-141.97;nan;45933.75;4995050;28;20439;-84
2023/12/29 01:52:14;;;;;;;72.27;32.93;;;;;;;-141.97;nan;46423.69;4970624;28;20407;-85
2023/12/29 01:54:42;;;;;;;79.03;34.43;;;;;;;-141.97;nan;46454.44;4990629;28;20459;-84
2023/12/29 01:57:08;;;;;;;73.53;33.23;;;;;;;-141.97;nan;45972.19;4990410;28;20406;-84
2023/12/29 01:59:35;;;;;;;72.23;32.03;;;;;;;-141.97;nan;46022.13;4960709;28;20407;-83
2023/12/29 02:02:01;;;;;;;83.67;37.33;;;;;;;-141.97;nan;46004.84;4976289;28;20739;-84
2023/12/29 02:04:28;;;;;;;73.17;31.70;;;;;;;-141.97;nan;46439.06;4958435;28;20430;-84
2023/12/29 02:06:54;;;;;;;72.10;30.80;;;;;;;-141.97;nan;46419.84;4974951;28;20419;-84
2023/12/29 02:09:20;;;;;;;70.13;32.47;;;;;;;-141.97;nan;45966.44;4974913;28;20474;-84
2023/12/29 02:11:46;;;;;;;64.37;28.63;;;;;;;-141.97;nan;46043.28;4957245;28;20483;-84
2023/12/29 02:14:13;;;;;;;61.30;25.63;;;;;;;-141.97;nan;45987.56;4974645;28;20195;-83
2023/12/29 02:16:51;;;;;;;62.57;26.90;;;;;;;-141.97;nan;45974.09;4974972;28;20240;-84
2023/12/29 02:19:30;;;;;;;64.23;28.30;;;;;;;-141.97;nan;46074.00;4974561;28;20735;-84
2023/12/29 02:21:56;;;;;;;64.30;26.53;;;;;;;-141.97;nan;46150.84;4956925;28;20936;-83
2023/12/29 02:24:21;;;;;;;60.17;25.63;;;;;;;-141.97;nan;45997.16;4956796;28;20560;-83
2023/12/29 02:26:53;;;;;;;63.80;27.50;;;;;;;-141.97;nan;45874.22;4974403;28;20179;-84
2023/12/29 02:29:20;;;;;;;65.63;29.83;;;;;;;-141.97;nan;46160.47;4974106;28;20172;-85
2023/12/29 02:31:51;;;;;;;60.83;26.53;;;;;;;-141.97;nan;46158.53;4956316;28;20450;-84
2023/12/29 02:34:18;;;;;;;63.43;27.93;;;;;;;-141.97;nan;46573.56;4956618;28;20463;-83
2023/12/29 02:36:44;;;;;;;60.13;26.33;;;;;;;-141.97;nan;46016.38;4956993;28;20772;-85
2023/12/29 02:39:10;;;;;;;57.17;26.27;;;;;;;-141.97;nan;46027.91;4974540;28;20423;-84
2023/12/29 02:41:38;;;;;;;55.30;25.00;;;;;;;-141.97;nan;46158.53;4973908;28;20172;-84
2023/12/29 02:44:03;;;;;;;51.87;24.73;;;;;;;-141.97;nan;46047.13;4973614;28;20230;-84
2023/12/29 02:46:29;;;;;;;54.80;25.97;;;;;;;-141.97;nan;46158.53;4973514;28;20517;-84
2023/12/29 02:48:54;;;;;;;56.40;26.33;;;;;;;-141.97;nan;45997.16;4974048;28;20179;-84
2023/12/29 02:51:20;;;;;;;47.37;22.63;;;;;;;-141.97;nan;45974.09;4973992;28;20764;-85
2023/12/29 02:53:45;;;;;;;54.70;26.17;;;;;;;-141.97;nan;46058.63;4959666;28;20660;-85
2023/12/29 02:56:11;;;;;;;61.97;28.83;;;;;;;-141.97;nan;46131.66;4989140;28;20272;-84
2023/12/29 02:58:36;;;;;;;59.17;27.07;;;;;;;-141.97;nan;46027.91;4996827;28;20171;-85
2023/12/29 03:01:01;;;;;;;72.57;31.10;;;;;;;-141.97;nan;46477.50;4973961;28;20621;-84
2023/12/29 03:03:27;;;;;;;76.67;33.20;;;;;;;-141.97;nan;46567.81;4973452;28;20217;-84
2023/12/29 03:05:52;;;;;;;79.77;33.70;;;;;;;-141.97;nan;46093.22;4973503;28;20549;-85
2023/12/29 03:08:17;;;;;;;71.80;32.33;;;;;;;-141.97;nan;46181.59;4973681;28;20625;-84
2023/12/29 03:10:43;;;;;;;72.63;32.53;;;;;;;-141.97;nan;45893.41;4956260;28;20309;-84
2023/12/29 03:13:08;;;;;;;80.93;35.17;;;;;;;-141.97;nan;46179.69;4973160;28;20194;-86
2023/12/29 03:15:34;;;;;;;82.73;36.77;;;;;;;-141.97;nan;46173.91;4955955;28;20180;-84
2023/12/29 03:17:59;;;;;;;81.73;36.30;;;;;;;-141.97;nan;46439.06;4955728;28;20215;-84
2023/12/29 03:20:25;;;;;;;110.10;43.30;;;;;;;-141.97;nan;46168.16;4955633;28;20262;-84
2023/12/29 03:22:50;;;;;;;103.23;44.20;;;;;;;-141.97;nan;46198.91;4973007;28;20207;-84
2023/12/29 03:25:15;;;;;;;98.13;42.40;;;;;;;-141.97;nan;46145.09;4973141;28;20176;-83
2023/12/29 03:27:41;;;;;;;99.60;39.90;;;;;;;-141.97;nan;46531.28;4972975;28;20172;-84
2023/12/29 03:30:07;;;;;;;86.77;37.43;;;;;;;-141.97;nan;46498.63;4972687;28;20179;-83
2023/12/29 03:32:32;;;;;;;83.87;36.93;;;;;;;-141.97;nan;46150.84;4972763;28;20220;-84
2023/12/29 03:34:57;;;;;;;84.57;38.93;;;;;;;-141.97;nan;46060.56;4972926;28;20203;-84
2023/12/29 03:37:23;;;;;;;96.80;40.80;;;;;;;-141.97;nan;46083.63;4955660;28;20212;-83
2023/12/29 03:39:48;;;;;;;85.20;37.57;;;;;;;-141.97;nan;46358.38;4972854;28;20641;-84
2023/12/29 03:42:14;;;;;;;92.77;38.67;;;;;;;-141.97;nan;46054.81;4954482;28;20227;-83
2023/12/29 03:44:39;;;;;;;90.13;40.43;;;;;;;-141.97;nan;46321.84;4954173;28;20180;-83
2023/12/29 03:47:04;;;;;;;93.00;40.60;;;;;;;-141.97;nan;46429.47;4972504;28;20168;-84
2023/12/29 03:49:30;;;;;;;101.40;41.93;;;;;;;-141.97;nan;46100.91;4972391;28;20259;-84
2023/12/29 03:51:55;;;;;;;90.97;38.97;;;;;;;-141.97;nan;46173.91;4972575;28;20274;-83
2023/12/29 03:54:21;;;;;;;90.07;39.60;;;;;;;-141.97;nan;46477.50;4972649;28;20203;-83
2023/12/29 03:56:47;;;;;;;78.53;35.40;;;;;;;-141.97;nan;46064.41;4955396;28;20350;-83
2023/12/29 03:59:12;;;;;;;95.33;40.20;;;;;;;-141.97;nan;46172.00;4972552;28;20191;-84
2023/12/29 04:01:37;;;;;;;91.73;39.80;;;;;;;-141.97;nan;46473.66;4955123;28;20608;-83
2023/12/29 04:04:03;;;;;;;81.03;36.03;;;;;;;-141.97;nan;46173.91;4972291;28;20251;-85
2023/12/29 04:06:28;;;;;;;86.60;38.03;;;;;;;-141.97;nan;46198.91;4954317;28;20564;-84
2023/12/29 04:08:54;;;;;;;83.87;35.77;;;;;;;-141.97;nan;45931.84;4954726;28;20246;-85
2023/12/29 04:11:19;;;;;;;76.73;33.70;;;;;;;-141.97;nan;46008.69;4954717;28;20363;-84
2023/12/29 04:13:44;;;;;;;81.67;33.73;;;;;;;-141.97;nan;46125.88;4976430;28;20203;-83
2023/12/29 04:16:10;;;;;;;77.30;33.03;;;;;;;-141.97;nan;46442.91;4973450;28;20251;-82
2023/12/29 04:18:35;;;;;;;71.80;32.40;;;;;;;-141.97;nan;46166.22;4955049;28;20719;-84
2023/12/29 04:21:01;;;;;;;70.20;32.07;;;;;;;-141.97;nan;45985.63;4955636;28;20264;-83
2023/12/29 04:23:26;;;;;;;87.67;35.33;;;;;;;-141.97;nan;46041.34;4954760;28;20283;-84
2023/12/29 04:25:51;;;;;;;83.20;35.30;;;;;;;-141.97;nan;46183.53;4972155;28;20608;-84
2023/12/29 04:28:17;;;;;;;86.93;34.10;;;;;;;-141.97;nan;45997.16;4971803;28;20255;-85
2023/12/29 04:30:42;;;;;;;86.57;38.77;;;;;;;-141.97;nan;46181.59;4971933;28;20605;-84
2023/12/29 04:33:08;;;;;;;99.47;41.27;;;;;;;-141.97;nan;46143.19;4972005;28;20617;-85
2023/12/29 04:35:33;;;;;;;98.83;40.13;;;;;;;-141.97;nan;46239.25;4972015;28;20554;-84
2023/12/29 04:37:58;;;;;;;134.30;52.07;;;;;;;-141.97;nan;46106.66;4971829;28;20223;-84
2023/12/29 04:40:24;;;;;;;137.67;56.20;;;;;;;-141.97;nan;46100.91;4971867;28;20172;-85
2023/12/29 04:42:49;;;;;;;100.00;43.77;;;;;;;-141.97;nan;46177.75;4971478;28;20218;-85
2023/12/29 04:45:15;;;;;;;109.57;46.23;;;;;;;-141.97;nan;46004.84;4971944;28;20646;-83
2023/12/29 04:47:40;;;;;;;99.47;42.97;;;;;;;-141.97;nan;45922.25;4971822;28;20637;-84
2023/12/29 04:50:06;;;;;;;113.10;47.80;;;;;;;-141.97;nan;46333.38;4954124;28;20180;-85
2023/12/29 04:52:31;;;;;;;139.87;61.43;;;;;;;-141.97;nan;46329.53;4954079;28;20194;-84
2023/12/29 04:54:57;;;;;;;122.60;52.37;;;;;;;-141.97;nan;46100.91;4954131;28;20467;-84
2023/12/29 04:57:22;;;;;;;116.40;50.63;;;;;;;-141.97;nan;46350.69;4971760;28;20227;-84
2023/12/29 04:59:48;;;;;;;122.03;50.83;;;;;;;-141.97;nan;46031.75;4988959;28;20215;-83
2023/12/29 05:02:13;;;;;;;129.53;54.43;;;;;;;-141.97;nan;46502.47;4990732;28;20172;-84
2023/12/29 05:04:38;;;;;;;132.77;56.50;;;;;;;-141.97;nan;45929.91;4990576;28;20226;-85
2023/12/29 05:07:09;;;;;;;132.03;55.80;;;;;;;-141.97;nan;46120.13;4973215;28;20585;-86
2023/12/29 05:09:35;;;;;;;157.70;65.00;;;;;;;-141.97;nan;45952.97;4974199;28;20167;-85
2023/12/29 05:12:01;;;;;;;303.27;116.90;;;;;;;-141.97;nan;45914.56;4990667;28;20545;-85
2023/12/29 05:14:26;;;;;;;193.77;78.47;;;;;;;-141.97;nan;46189.28;4973228;28;20651;-84
2023/12/29 05:16:51;;;;;;;232.73;92.30;;;;;;;-141.97;nan;46018.28;4990782;28;20588;-84
2023/12/29 05:19:17;;;;;;;189.27;78.23;;;;;;;-141.97;nan;46056.72;4981233;28;20175;-82
2023/12/29 05:21:42;;;;;;;147.17;60.07;;;;;;;-141.97;nan;46152.78;5008493;28;20632;-83
2023/12/29 05:24:08;;;;;;;159.70;64.10;;;;;;;-141.97;nan;45979.88;4991351;28;20183;-83
2023/12/29 05:26:33;;;;;;;165.43;73.77;;;;;;;-141.97;nan;46189.28;4990833;28;20279;-84
2023/12/29 05:28:59;;;;;;;341.27;120.87;;;;;;;-141.97;nan;46181.59;4990759;28;20206;-83
2023/12/29 05:31:24;;;;;;;237.97;91.13;;;;;;;-141.97;nan;46166.22;4990617;28;20171;-84
2023/12/29 05:33:50;;;;;;;164.27;65.87;;;;;;;-141.97;nan;46172.00;4972560;28;20249;-83
2023/12/29 05:36:16;;;;;;;118.20;51.40;;;;;;;-141.97;nan;46022.13;4990511;28;20262;-84
2023/12/29 05:38:45;;;;;;;144.33;62.60;;;;;;;-141.97;nan;46204.66;4990691;28;20501;-83
2023/12/29 05:41:13;;;;;;;201.83;93.27;;;;;;;-141.97;nan;46189.28;4990395;28;20178;-83
2023/12/29 05:43:38;;;;;;;183.13;83.80;;;;;;;-141.97;nan;46143.19;4990054;28;20399;-83
2023/12/29 05:46:09;;;;;;;113.73;51.17;;;;;;;-141.97;nan;46427.53;4990470;28;20800;-83
2023/12/29 05:48:34;;;;;;;113.43;47.00;;;;;;;-141.97;nan;46016.38;4972773;28;20179;-84
2023/12/29 05:51:07;;;;;;;102.00;42.90;;;;;;;-141.97;nan;46039.44;4973542;28;21070;-84
2023/12/29 05:53:32;;;;;;;166.13;71.37;;;;;;;-141.97;nan;46525.53;4973574;28;20199;-85
2023/12/29 05:55:57;;;;;;;276.47;107.10;;;;;;;-141.97;nan;46396.78;4990784;28;20411;-84
2023/12/29 05:58:23;;;;;;;167.37;67.40;;;;;;;-141.97;nan;46494.78;4991026;28;20255;-85
2023/12/29 06:00:48;;;;;;;93.83;38.93;;;;;;;-141.97;nan;46439.06;4973692;28;20730;-84
2023/12/29 06:03:14;;;;;;;70.40;28.93;;;;;;;-141.97;nan;46477.50;4975688;28;20179;-85
2023/12/29 06:05:39;;;;;;;64.73;29.83;;;;;;;-141.97;nan;46465.97;4993831;28;20195;-84
2023/12/29 06:08:05;;;;;;;102.90;40.07;;;;;;;-141.97;nan;46022.13;4993309;28;20550;-85
2023/12/29 06:10:31;;;;;;;222.37;72.80;;;;;;;-141.97;nan;46120.13;4976427;28;20284;-83
2023/12/29 06:12:56;;;;;;;94.33;36.40;;;;;;;-141.97;nan;46077.84;4994386;28;20467;-85
2023/12/29 06:15:22;;;;;;;44.50;20.63;;;;;;;-141.97;nan;46102.81;4994340;28;20210;-84
2023/12/29 06:17:47;;;;;;;44.10;20.53;;;;;;;-141.97;nan;46074.00;4976637;28;20171;-86
2023/12/29 06:20:12;;;;;;;47.30;22.20;;;;;;;-141.97;nan;46060.56;4980823;28;20172;-84
2023/12/29 06:22:41;;;;;;;45.20;19.97;;;;;;;-141.97;nan;46204.66;5016194;28;20223;-87
2023/12/29 06:25:11;;;;;;;58.45;24.48;;;;;;;-141.97;nan;46070.16;5000096;28;20215;-86
2023/12/29 06:27:40;;;;;;;52.90;23.17;;;;;;;-141.97;nan;46181.59;5000761;28;20184;-84
2023/12/29 06:30:06;;;;;;;59.78;25.98;;;;;;;-141.97;nan;46164.31;4977298;28;20463;-83
2023/12/29 06:32:32;;;;;;;55.47;24.00;;;;;;;-141.97;nan;46166.22;4978839;28;20637;-83
2023/12/29 06:34:57;;;;;;;84.27;36.17;;;;;;;-141.97;nan;46123.97;4974952;28;20553;-85
2023/12/29 06:37:23;;;;;;;99.47;43.20;;;;;;;-141.97;nan;46419.84;4977234;28;20164;-85
2023/12/29 06:39:48;;;;;;;90.77;40.97;;;;;;;-141.97;nan;46066.31;4979325;28;20282;-84
2023/12/29 06:42:14;;;;;;;77.20;34.57;;;;;;;-141.97;nan;45985.63;4982643;28;20183;-86
2023/12/29 06:44:39;;;;;;;64.77;29.70;;;;;;;-141.97;nan;46054.81;4980042;28;20169;-86
2023/12/29 06:47:06;;;;;;;59.03;28.00;;;;;;;-141.97;nan;45997.16;4976788;28;20172;-84
2023/12/29 06:49:34;;;;;;;47.10;23.13;;;;;;;-141.97;nan;46394.88;4963863;28;20651;-86
2023/12/29 06:52:01;;;;;;;53.63;24.77;;;;;;;-141.97;nan;45935.69;4978603;28;20947;-85
2023/12/29 06:54:27;;;;;;;60.17;26.73;;;;;;;-141.97;nan;45956.81;4981502;28;20462;-86
2023/12/29 06:56:52;;;;;;;82.23;37.23;;;;;;;-141.97;nan;46012.53;4980934;28;20234;-86
2023/12/29 06:59:19;;;;;;;92.43;40.27;;;;;;;-141.97;nan;45881.91;4965731;28;20432;-85
2023/12/29 07:01:45;;;;;;;98.87;43.37;;;;;;;-141.97;nan;45920.31;4978956;28;20176;-87
2023/12/29 07:04:11;;;;;;;75.30;36.07;;;;;;;-141.97;nan;46433.28;4963561;28;20423;-84
2023/12/29 07:06:37;;;;;;;84.23;37.57;;;;;;;-141.97;nan;45968.34;4962277;28;20260;-87
2023/12/29 07:09:04;;;;;;;133.57;64.73;;;;;;;-141.97;nan;45928.00;4962636;28;20184;-86
2023/12/29 07:11:30;;;;;;;244.57;106.57;;;;;;;-141.97;nan;46325.69;4976561;28;20738;-87
2023/12/29 07:13:55;;;;;;;166.67;81.00;;;;;;;-141.97;nan;45843.47;4996215;28;20213;-87
2023/12/29 07:16:21;;;;;;;178.77;86.70;;;;;;;-141.97;nan;45966.44;4998514;28;20171;-89
2023/12/29 07:18:47;;;;;;;80.70;40.63;;;;;;;-141.97;nan;45758.94;4996709;28;20168;-89
2023/12/29 07:21:13;;;;;;;93.17;46.00;;;;;;;-141.97;nan;45833.88;4979246;28;20258;-87
2023/12/29 07:23:39;;;;;;;81.07;40.87;;;;;;;-141.97;nan;45879.97;4980559;28;20719;-88
2023/12/29 07:26:05;;;;;;;110.70;57.53;;;;;;;-141.97;nan;46085.53;4981304;28;20179;-86
2023/12/29 07:28:32;;;;;;;188.67;90.50;;;;;;;-141.97;nan;46091.31;4994576;28;20170;-90
2023/12/29 07:30:57;;;;;;;124.03;65.83;;;;;;;-141.97;nan;45762.78;4978385;28;20167;-89
2023/12/29 07:33:23;;;;;;;148.53;76.10;;;;;;;-141.97;nan;46087.47;4976466;28;20274;-86
2023/12/29 07:35:49;;;;;;;203.83;99.57;;;;;;;-141.97;nan;45897.25;4994226;28;20235;-88
2023/12/29 07:38:15;;;;;;;170.20;79.63;;;;;;;-141.97;nan;45966.44;4981443;28;20203;-87
2023/12/29 07:40:40;;;;;;;193.90;84.87;;;;;;;-141.97;nan;46227.72;5015215;28;20155;-88
2023/12/29 07:43:05;;;;;;;191.13;90.13;;;;;;;-141.97;nan;45997.16;5016880;28;20253;-87
2023/12/29 07:45:31;;;;;;;181.33;85.57;;;;;;;-141.97;nan;45743.56;5002774;28;20608;-88
2023/12/29 07:47:57;;;;;;;192.40;79.80;;;;;;;-141.97;nan;46312.25;4983773;28;20171;-88
2023/12/29 07:50:22;;;;;;;165.60;64.30;;;;;;;-141.97;nan;45993.31;4977353;28;20171;-87
2023/12/29 07:52:48;;;;;;;133.03;53.53;;;;;;;-141.97;nan;45951.06;4977121;28;20629;-88
2023/12/29 07:55:16;;;;;;;112.83;49.67;;;;;;;-141.97;nan;45870.38;4994748;28;20747;-88
2023/12/29 07:57:42;;;;;;;184.10;77.93;;;;;;;-141.97;nan;45843.47;4975894;28;20175;-87
2023/12/29 08:00:09;;;;;;;198.63;90.40;;;;;;;-141.97;nan;46029.81;4994105;28;20403;-86
2023/12/29 08:02:34;;;;;;;213.37;101.63;;;;;;;-141.97;nan;45862.69;4995066;28;20806;-88
2023/12/29 08:04:59;;;;;;;178.77;90.53;;;;;;;-141.97;nan;45866.53;4976434;28;20419;-88
2023/12/29 08:07:25;;;;;;;127.77;65.10;;;;;;;-141.97;nan;46204.66;4976546;28;20627;-87
2023/12/29 08:09:50;;;;;;;115.13;58.07;;;;;;;-141.97;nan;46293.03;4976380;28;20322;-87
2023/12/29 08:12:16;;;;;;;104.33;53.27;;;;;;;-141.97;nan;46323.78;4994812;28;20226;-88
2023/12/29 08:14:41;;;;;;;94.10;48.80;;;;;;;-141.97;nan;46248.84;4981020;28;20203;-90
2023/12/29 08:17:08;;;;;;;105.80;50.90;;;;;;;-141.97;nan;46366.06;4960312;28;20192;-88
2023/12/29 08:19:34;;;;;;;87.60;43.40;;;;;;;-141.97;nan;46364.13;4975764;28;20171;-88
2023/12/29 08:21:59;;;;;;;85.03;44.33;;;;;;;-141.97;nan;46004.84;4976125;28;20167;-90
2023/12/29 08:24:25;;;;;;;81.30;43.20;;;;;;;-141.97;nan;45789.69;4959050;28;20210;-88
2023/12/29 08:26:50;;;;;;;72.93;39.13;;;;;;;-141.97;nan;45985.63;4957954;28;20326;-90
2023/12/29 08:29:16;;;;;;;90.47;41.43;;;;;;;-141.97;nan;45906.88;4958196;28;20609;-90
2023/12/29 08:31:42;;;;;;;78.10;36.93;;;;;;;-141.97;nan;46273.81;4957598;28;20190;-91
2023/12/29 08:34:08;;;;;;;60.47;32.17;;;;;;;-141.97;nan;46041.34;4976190;28;20234;-88
2023/12/29 08:36:33;;;;;;;66.53;33.47;;;;;;;-141.97;nan;46168.16;4974832;28;20172;-89
2023/12/29 08:38:59;;;;;;;62.93;33.30;;;;;;;-141.97;nan;45889.56;4955649;28;20614;-90
2023/12/29 08:41:24;;;;;;;57.63;31.27;;;;;;;-141.97;nan;45805.06;4958324;28;20248;-88
2023/12/29 08:43:50;;;;;;;70.07;37.47;;;;;;;-141.97;nan;45824.25;4957447;28;20199;-87
2023/12/29 08:46:15;;;;;;;82.17;41.70;;;;;;;-141.97;nan;45793.53;4958725;28;20172;-88
2023/12/29 08:48:41;;;;;;;86.00;44.60;;;;;;;-141.97;nan;45843.47;4957800;28;20183;-85
2023/12/29 08:51:06;;;;;;;88.53;45.90;;;;;;;-141.97;nan;46319.94;4974866;28;20523;-85
2023/12/29 08:53:35;;;;;;;74.97;37.40;;;;;;;-141.97;nan;45808.91;4974473;28;20695;-85
2023/12/29 08:56:04;;;;;;;107.60;55.93;;;;;;;-141.97;nan;45935.69;4976504;28;20206;-83
2023/12/29 08:58:30;;;;;;;89.93;48.50;;;;;;;-141.97;nan;45820.41;4957167;28;20187;-87
2023/12/29 09:00:55;;;;;;;60.83;33.80;;;;;;;-141.97;nan;45789.69;4970508;28;20176;-85
2023/12/29 09:03:21;;;;;;;61.50;33.57;;;;;;;-141.97;nan;45780.06;4946009;28;20174;-87
2023/12/29 09:05:46;;;;;;;77.40;36.03;;;;;;;-141.97;nan;45789.69;4948299;28;20168;-84
2023/12/29 09:08:12;;;;;;;66.53;30.97;;;;;;;-141.97;nan;45812.72;4965216;28;20190;-87
2023/12/29 09:10:38;;;;;;;33.17;16.17;;;;;;;-141.97;nan;45843.47;4956742;28;20744;-82
2023/12/29 09:13:04;;;;;;;25.90;13.70;;;;;;;-141.97;nan;45847.31;4954605;29;20212;-84
2023/12/29 09:15:29;;;;;;;34.57;16.70;;;;;;;-141.97;nan;45897.25;4954903;28;20676;-83
2023/12/29 09:17:55;;;;;;;42.73;19.47;;;;;;;-141.97;nan;45755.09;4953931;29;20165;-85
2023/12/29 09:20:20;;;;;;;43.60;20.23;;;;;;;-141.97;nan;46148.94;4937368;29;20196;-83
2023/12/29 09:22:46;;;;;;;39.97;20.17;;;;;;;-141.97;nan;46200.81;4954358;29;20634;-84
2023/12/29 09:25:11;;;;;;;39.40;20.60;;;;;;;-141.97;nan;45874.22;4936437;29;20180;-84
2023/12/29 09:27:36;;;;;;;25.53;15.43;;;;;;;-141.97;nan;45726.28;4953263;29;20176;-84
2023/12/29 09:30:03;;;;;;;28.60;16.30;;;;;;;-141.97;nan;45858.84;4935134;29;20173;-85
2023/12/29 09:32:29;;;;;;;29.43;16.47;;;;;;;-141.97;nan;45966.44;4953526;29;20168;-83
2023/12/29 09:34:54;;;;;;;30.97;16.80;;;;;;;-141.97;nan;46085.53;4959228;29;20219;-85
2023/12/29 09:37:20;;;;;;;33.13;18.70;;;;;;;-141.97;nan;45881.91;4939961;29;20194;-83
2023/12/29 09:39:45;;;;;;;33.90;19.20;;;;;;;-141.97;nan;45845.41;4966521;28;20215;-84
2023/12/29 09:42:19;;;;;;;37.63;18.67;;;;;;;-141.97;nan;45782.00;4949451;28;20204;-83
2023/12/29 09:44:49;;;;;;;22.13;13.57;;;;;;;-141.97;nan;45699.41;4968857;28;20226;-84
2023/12/29 09:47:17;;;;;;;28.07;13.87;;;;;;;-141.97;nan;45659.06;4968791;28;20187;-82
2023/12/29 09:49:44;;;;;;;26.03;13.63;;;;;;;-141.97;nan;46116.28;4972993;28;20343;-84
2023/12/29 09:52:12;;;;;;;25.73;14.40;;;;;;;-141.97;nan;46162.38;4979024;28;20171;-83
2023/12/29 09:54:39;;;;;;;20.53;12.73;;;;;;;-141.97;nan;45843.47;4977497;28;20227;-83
2023/12/29 09:57:05;;;;;;;20.90;12.70;;;;;;;-141.97;nan;45847.31;4976829;28;20615;-83
2023/12/29 09:59:35;;;;;;;25.17;11.80;;;;;;;-141.97;nan;45824.25;4977164;28;20187;-84
2023/12/29 10:02:03;;;;;;;22.20;12.33;;;;;;;-141.97;nan;46027.91;4975898;28;20610;-82
2023/12/29 10:04:29;;;;;;;22.03;12.83;;;;;;;-141.97;nan;45968.34;4980195;28;20164;-83
2023/12/29 10:06:56;;;;;;;23.37;12.73;;;;;;;-141.97;nan;45824.25;4978472;28;20171;-83
2023/12/29 10:09:23;;;;;;;27.17;13.60;;;;;;;-141.97;nan;45782.00;4995418;28;20169;-80
2023/12/29 10:11:51;;;;;;;30.27;14.60;;;;;;;-141.97;nan;46054.81;4986369;28;20224;-84
2023/12/29 10:14:26;;;;;;;21.90;14.43;;;;;;;-141.97;nan;45762.78;4975784;28;20192;-84
2023/12/29 10:17:07;;;;;;;28.20;13.70;;;;;;;-141.97;nan;45660.97;4975388;28;20152;-83
2023/12/29 10:19:50;;;;;;;39.33;17.87;;;;;;;-141.97;nan;45743.56;4959134;28;20167;-84
2023/12/29 10:22:26;;;;;;;29.50;15.17;;;;;;;-141.97;nan;45655.22;4975226;28;20195;-83
2023/12/29 10:24:52;;;;;;;30.83;15.23;;;;;;;-141.97;nan;45743.56;4976059;28;20257;-84
2023/12/29 10:27:18;;;;;;;29.63;15.13;;;;;;;-141.97;nan;45762.78;4958490;28;20267;-84
2023/12/29 10:29:43;;;;;;;28.43;15.57;;;;;;;-141.97;nan;45805.06;4975784;28;20203;-83
2023/12/29 10:32:09;;;;;;;29.27;15.97;;;;;;;-141.97;nan;45806.97;4975524;28;20531;-83
2023/12/29 10:34:35;;;;;;;30.87;18.10;;;;;;;-141.97;nan;45789.69;4975240;28;20650;-83
2023/12/29 10:37:03;;;;;;;32.90;18.50;;;;;;;-141.97;nan;45805.06;4976217;28;20184;-87
2023/12/29 10:39:29;;;;;;;30.73;18.30;;;;;;;-141.97;nan;45689.78;4958179;28;20175;-87
2023/12/29 10:42:06;;;;;;;37.67;19.50;;;;;;;-141.97;nan;45964.50;4976992;28;20163;-87
2023/12/29 10:44:36;;;;;;;33.20;19.57;;;;;;;-141.97;nan;45745.50;4979511;28;20156;-86
2023/12/29 10:47:09;;;;;;;31.17;19.13;;;;;;;-141.97;nan;45612.94;4978495;28;20198;-87
2023/12/29 10:49:35;;;;;;;33.97;19.13;;;;;;;-141.97;nan;46058.63;4979627;28;20157;-85
2023/12/29 10:52:11;;;;;;;35.03;18.80;;;;;;;-141.97;nan;45660.97;4959332;28;20231;-81
2023/12/29 10:54:37;;;;;;;35.07;19.23;;;;;;;-141.97;nan;45780.06;4958077;28;20191;-82
2023/12/29 10:57:05;;;;;;;39.47;19.20;;;;;;;-141.97;nan;45724.38;4973983;28;20594;-90
2023/12/29 10:59:30;;;;;;;34.83;18.57;;;;;;;-141.97;nan;45620.63;4979698;28;20167;-88
2023/12/29 11:02:02;;;;;;;35.80;19.57;;;;;;;-141.97;nan;45783.91;4995969;28;20188;-88
2023/12/29 11:04:27;;;;;;;34.77;19.40;;;;;;;-141.97;nan;46139.34;5001896;23;20236;-88
2023/12/29 11:06:52;;;;;;;36.27;20.30;;;;;;;-141.97;nan;45853.06;4952911;29;20192;-88
2023/12/29 11:09:32;;;;;;;37.57;21.20;;;;;;;-141.97;nan;45782.00;4964692;29;20176;-89